Time;durP1;ratioP1;P1;durP2;ratioP2;P2;SDS_P1;SDS_P2;PMS_P1;PMS_P2;Temp;Humidity;BMP_temperature;BMP_pressure;BME280_temperature;BME280_humidity;BME280_pressure;Samples;Min_cycle;Max_cycle;Signal;HPM_P1;HPM_P2
2021/11/15 00:01:43;;;;;;;30.00;18.75;;;6.90;99.90;;;;;;5052616;28;20049;-87
2021/11/15 00:04:17;;;;;;;26.63;17.23;;;6.90;99.90;;;;;;5051590;28;20044;-87
2021/11/15 00:06:44;;;;;;;29.45;17.80;;;6.90;99.90;;;;;;5053572;28;20136;-86
2021/11/15 00:09:11;;;;;;;29.35;17.92;;;6.80;99.90;;;;;;5055190;28;20048;-87
2021/11/15 00:11:38;;;;;;;26.48;17.17;;;6.80;99.90;;;;;;5055082;28;20045;-87
2021/11/15 00:14:06;;;;;;;28.05;17.55;;;6.80;99.90;;;;;;5055440;28;20055;-87
2021/11/15 00:16:34;;;;;;;24.98;16.67;;;6.80;99.90;;;;;;5055893;28;20047;-87
2021/11/15 00:19:02;;;;;;;26.60;17.63;;;6.70;99.90;;;;;;5056258;28;20049;-87
2021/11/15 00:21:29;;;;;;;24.35;16.10;;;6.70;99.90;;;;;;5056216;28;20069;-87
2021/11/15 00:23:56;;;;;;;28.02;16.23;;;6.70;99.90;;;;;;5056063;28;20060;-87
2021/11/15 00:26:23;;;;;;;26.27;15.75;;;6.70;99.90;;;;;;5054789;28;20420;-87
2021/11/15 00:28:50;;;;;;;23.92;15.63;;;6.60;99.90;;;;;;5055962;28;20052;-87
2021/11/15 00:31:18;;;;;;;25.80;16.05;;;6.60;99.90;;;;;;5055219;28;20053;-87
2021/11/15 00:33:45;;;;;;;21.58;14.57;;;6.60;99.90;;;;;;5054966;28;20080;-87
2021/11/15 00:36:12;;;;;;;23.05;15.38;;;6.60;99.90;;;;;;5054767;28;20088;-87
2021/11/15 00:38:39;;;;;;;22.80;15.52;;;6.60;99.90;;;;;;5054482;28;20045;-87
2021/11/15 00:41:06;;;;;;;21.48;15.25;;;6.60;99.90;;;;;;5054744;28;20056;-88
2021/11/15 00:43:33;;;;;;;21.45;14.85;;;6.60;99.90;;;;;;5054726;28;20047;-87
2021/11/15 00:46:00;;;;;;;22.83;15.27;;;6.70;99.90;;;;;;5055029;28;20053;-87
2021/11/15 00:48:27;;;;;;;20.48;13.65;;;6.70;99.90;;;;;;5057652;28;20058;-87
2021/11/15 00:50:54;;;;;;;20.08;14.35;;;6.60;99.90;;;;;;5075429;28;20041;-86
2021/11/15 00:53:20;;;;;;;21.65;14.95;;;6.60;99.90;;;;;;5058029;28;20472;-87
2021/11/15 00:55:47;;;;;;;18.98;13.77;;;6.60;99.90;;;;;;5075236;28;20044;-88
2021/11/15 00:58:14;;;;;;;19.42;14.02;;;6.70;99.90;;;;;;5075449;28;20044;-87
2021/11/15 01:00:42;;;;;;;22.85;14.77;;;6.60;99.90;;;;;;5057674;28;20054;-87
2021/11/15 01:03:11;;;;;;;18.80;14.27;;;6.60;99.90;;;;;;5058555;28;20041;-87
2021/11/15 01:05:40;;;;;;;21.45;14.32;;;6.50;99.90;;;;;;5075013;28;20051;-87
2021/11/15 01:08:08;;;;;;;18.42;13.35;;;6.60;99.90;;;;;;5057925;28;20512;-87
2021/11/15 01:10:35;;;;;;;19.73;13.52;;;6.60;99.90;;;;;;5057234;28;20055;-87
2021/11/15 01:13:03;;;;;;;19.75;14.15;;;6.60;99.90;;;;;;5057536;28;20055;-87
2021/11/15 01:15:30;;;;;;;20.02;13.32;;;6.70;99.90;;;;;;5057379;28;20055;-88
2021/11/15 01:17:59;;;;;;;17.42;12.48;;;6.60;99.90;;;;;;5057234;28;20051;-87
2021/11/15 01:20:30;;;;;;;20.75;13.98;;;6.60;99.90;;;;;;5074880;28;20472;-87
2021/11/15 01:22:57;;;;;;;18.65;13.50;;;6.60;99.90;;;;;;5057477;28;20052;-87
2021/11/15 01:25:25;;;;;;;19.45;13.10;;;6.60;99.90;;;;;;5074809;28;20044;-87
2021/11/15 01:27:51;;;;;;;15.63;12.07;;;6.60;99.90;;;;;;5057412;28;20051;-87
2021/11/15 01:30:20;;;;;;;18.50;12.77;;;6.60;99.90;;;;;;5074937;28;20056;-86
2021/11/15 01:32:47;;;;;;;19.88;12.40;;;6.50;99.90;;;;;;5057080;28;20054;-86
2021/11/15 01:35:15;;;;;;;21.13;13.02;;;6.50;99.90;;;;;;5057151;28;20098;-87
2021/11/15 01:37:42;;;;;;;18.02;12.57;;;6.50;99.90;;;;;;5057036;28;20052;-87
2021/11/15 01:40:12;;;;;;;18.83;12.85;;;6.40;99.90;;;;;;5056661;28;20123;-87
2021/11/15 01:42:39;;;;;;;20.33;12.85;;;6.40;99.90;;;;;;5074644;28;20049;-87
2021/11/15 01:45:09;;;;;;;18.95;11.82;;;6.50;99.90;;;;;;5056978;28;20055;-87
2021/11/15 01:47:36;;;;;;;16.40;11.95;;;6.50;99.90;;;;;;5074211;28;20496;-88
2021/11/15 01:50:06;;;;;;;18.35;12.73;;;6.50;99.90;;;;;;5057401;28;20071;-88
2021/11/15 01:52:33;;;;;;;17.48;11.85;;;6.40;99.90;;;;;;5057113;28;20047;-88
2021/11/15 01:55:00;;;;;;;18.52;12.30;;;6.50;99.90;;;;;;5074899;28;20048;-88
2021/11/15 01:57:26;;;;;;;16.85;12.27;;;6.50;99.90;;;;;;5057304;28;20408;-88
2021/11/15 01:59:53;;;;;;;18.75;11.82;;;6.50;99.90;;;;;;5072701;28;20049;-88
2021/11/15 02:02:26;;;;;;;17.48;11.63;;;6.50;99.90;;;;;;5072885;28;20055;-87
2021/11/15 02:04:55;;;;;;;18.50;11.50;;;6.40;99.90;;;;;;5072789;28;20057;-88
2021/11/15 02:07:21;;;;;;;18.52;11.95;;;6.30;99.90;;;;;;5054901;28;20078;-88
2021/11/15 02:09:50;;;;;;;19.73;12.05;;;6.40;99.90;;;;;;5055089;28;20386;-87
2021/11/15 02:12:17;;;;;;;15.90;11.13;;;6.40;99.90;;;;;;5055368;28;20492;-88
2021/11/15 02:14:44;;;;;;;18.00;11.55;;;6.40;99.90;;;;;;5055518;28;20066;-87
2021/11/15 02:17:11;;;;;;;19.90;12.90;;;6.30;99.90;;;;;;5073873;28;20049;-88
2021/11/15 02:19:38;;;;;;;18.98;13.10;;;6.30;99.90;;;;;;5056052;28;20409;-87
2021/11/15 02:22:05;;;;;;;20.65;12.73;;;6.30;99.90;;;;;;5056319;28;20432;-87
2021/11/15 02:24:32;;;;;;;22.70;13.80;;;6.30;99.90;;;;;;5056073;28;20507;-87
2021/11/15 02:26:59;;;;;;;21.58;12.80;;;6.30;99.90;;;;;;5073918;28;20390;-87
2021/11/15 02:29:26;;;;;;;19.05;12.30;;;6.20;99.90;;;;;;5055567;28;20412;-87
2021/11/15 02:31:53;;;;;;;20.65;13.05;;;6.20;99.90;;;;;;5073002;28;20051;-88
2021/11/15 02:34:20;;;;;;;20.35;12.63;;;6.20;99.90;;;;;;5073350;28;20079;-87
2021/11/15 02:36:46;;;;;;;19.40;11.63;;;6.20;99.90;;;;;;5056006;28;20056;-86
2021/11/15 02:39:13;;;;;;;20.38;12.23;;;6.20;99.90;;;;;;5073552;28;20135;-88
2021/11/15 02:41:40;;;;;;;19.02;12.88;;;6.30;99.90;;;;;;5055670;28;20540;-87
2021/11/15 02:44:08;;;;;;;20.92;12.60;;;6.20;99.90;;;;;;5055873;28;20055;-87
2021/11/15 02:46:35;;;;;;;22.20;13.32;;;6.20;99.90;;;;;;5055339;28;20619;-87
2021/11/15 02:49:03;;;;;;;17.02;11.77;;;6.20;99.90;;;;;;5073718;28;20471;-87
2021/11/15 02:51:30;;;;;;;18.23;12.13;;;6.20;99.90;;;;;;5056021;28;20051;-87
2021/11/15 02:53:57;;;;;;;19.95;12.45;;;6.20;99.90;;;;;;5055968;28;20147;-87
2021/11/15 02:56:24;;;;;;;21.98;13.63;;;6.10;99.90;;;;;;5055797;28;20076;-87
2021/11/15 02:58:51;;;;;;;21.75;13.23;;;6.10;99.90;;;;;;5073458;28;20055;-87
2021/11/15 03:01:19;;;;;;;20.88;13.43;;;6.10;99.90;;;;;;5073123;28;20051;-87
2021/11/15 03:03:46;;;;;;;22.45;12.95;;;6.10;99.90;;;;;;5055492;28;20064;-88
2021/11/15 03:06:13;;;;;;;20.10;13.05;;;6.10;99.90;;;;;;5055798;28;20056;-88
2021/11/15 03:08:40;;;;;;;20.58;12.68;;;6.10;99.90;;;;;;5073233;28;20048;-86
2021/11/15 03:11:08;;;;;;;18.63;12.13;;;6.10;99.90;;;;;;5056097;28;20127;-87
2021/11/15 03:13:40;;;;;;;24.25;14.52;;;6.10;99.90;;;;;;5072898;28;20098;-87
2021/11/15 03:16:08;;;;;;;19.75;12.80;;;6.00;99.90;;;;;;5055495;28;20508;-87
2021/11/15 03:18:38;;;;;;;19.20;12.88;;;6.00;99.90;;;;;;5073230;28;20547;-88
2021/11/15 03:21:14;;;;;;;23.15;13.65;;;6.00;99.90;;;;;;5055877;28;20128;-86
2021/11/15 03:23:44;;;;;;;16.95;11.90;;;6.00;99.90;;;;;;5055643;28;20123;-88
2021/11/15 03:26:11;;;;;;;22.13;13.18;;;6.00;99.90;;;;;;5055218;28;20139;-87
2021/11/15 03:28:43;;;;;;;18.20;12.55;;;5.90;99.90;;;;;;5055382;28;20151;-87
2021/11/15 03:31:32;;;;;;;21.08;13.85;;;5.90;99.90;;;;;;5073076;28;20048;-87
2021/11/15 03:34:03;;;;;;;25.27;14.80;;;5.90;99.90;;;;;;5055088;28;20106;-88
2021/11/15 03:36:31;;;;;;;20.67;12.40;;;6.00;99.90;;;;;;5054990;28;20512;-88
2021/11/15 03:38:58;;;;;;;19.48;13.07;;;6.00;99.90;;;;;;5055558;28;20040;-88
2021/11/15 03:41:29;;;;;;;20.50;12.68;;;5.90;99.90;;;;;;5058987;28;20076;-87
2021/11/15 03:43:55;;;;;;;21.90;12.88;;;6.00;99.90;;;;;;5059453;28;20051;-87
2021/11/15 03:46:22;;;;;;;18.35;11.95;;;6.10;99.90;;;;;;5059037;28;20048;-87
2021/11/15 03:48:50;;;;;;;19.90;13.38;;;6.10;99.90;;;;;;5059230;28;20060;-88
2021/11/15 03:51:18;;;;;;;21.33;13.57;;;6.10;99.90;;;;;;5076694;28;20075;-87
2021/11/15 03:53:46;;;;;;;21.08;13.95;;;6.10;99.90;;;;;;5059137;28;20053;-88
2021/11/15 03:56:17;;;;;;;20.35;12.80;;;6.00;99.90;;;;;;5058876;28;20040;-88
2021/11/15 03:58:46;;;;;;;23.23;13.27;;;6.10;99.90;;;;;;5058955;28;20052;-88
2021/11/15 04:01:13;;;;;;;21.25;13.63;;;6.00;99.90;;;;;;5059009;28;20135;-87
2021/11/15 04:03:44;;;;;;;20.55;14.13;;;5.90;99.90;;;;;;5076273;28;20080;-87
2021/11/15 04:06:25;;;;;;;22.95;13.45;;;5.90;99.90;;;;;;5058902;28;20048;-88
2021/11/15 04:08:56;;;;;;;19.60;13.20;;;5.90;99.90;;;;;;5059081;28;20055;-88
2021/11/15 04:11:27;;;;;;;19.20;13.75;;;5.90;99.90;;;;;;5076497;28;20135;-87
2021/11/15 04:14:00;;;;;;;18.77;13.48;;;5.90;99.90;;;;;;5058679;28;20175;-88
2021/11/15 04:16:27;;;;;;;17.83;12.40;;;5.90;99.90;;;;;;5076067;28;20087;-87
2021/11/15 04:19:02;;;;;;;18.67;13.43;;;5.80;99.90;;;;;;5058840;28;20044;-87
2021/11/15 04:21:30;;;;;;;19.25;13.13;;;5.90;99.90;;;;;;5058551;28;20420;-87
2021/11/15 04:23:57;;;;;;;18.40;13.02;;;5.90;99.90;;;;;;5076314;28;20400;-88
2021/11/15 04:26:24;;;;;;;20.42;12.88;;;5.80;99.90;;;;;;5057848;28;20066;-87
2021/11/15 04:28:52;;;;;;;20.38;13.63;;;5.80;99.90;;;;;;5058260;28;20113;-87
2021/11/15 04:31:18;;;;;;;23.05;15.00;;;5.90;99.90;;;;;;5058444;28;20053;-88
2021/11/15 04:33:45;;;;;;;22.15;14.70;;;5.80;99.90;;;;;;5075777;28;20535;-88
2021/11/15 04:36:12;;;;;;;23.13;15.10;;;5.90;99.90;;;;;;5058215;28;20052;-88
2021/11/15 04:38:39;;;;;;;21.13;14.27;;;5.80;99.90;;;;;;5075811;28;20087;-88
2021/11/15 04:41:06;;;;;;;22.73;14.95;;;5.80;99.90;;;;;;5075568;28;20131;-87
2021/11/15 04:43:33;;;;;;;19.45;14.38;;;5.80;99.90;;;;;;5057847;28;20408;-87
2021/11/15 04:46:00;;;;;;;21.98;14.77;;;5.80;99.90;;;;;;5057732;28;20048;-88
2021/11/15 04:48:27;;;;;;;25.52;16.58;;;5.90;99.90;;;;;;5075405;28;20049;-87
2021/11/15 04:50:54;;;;;;;23.95;14.90;;;5.90;99.90;;;;;;5075297;28;20054;-87
2021/11/15 04:53:21;;;;;;;23.20;15.07;;;5.90;99.90;;;;;;5057827;28;20048;-88
2021/11/15 04:55:48;;;;;;;22.58;14.50;;;5.90;99.90;;;;;;5057774;28;20040;-87
2021/11/15 04:58:15;;;;;;;27.35;15.23;;;5.90;99.90;;;;;;5057199;28;20056;-88
2021/11/15 05:00:43;;;;;;;21.00;14.73;;;5.80;99.90;;;;;;5058016;28;20070;-88
2021/11/15 05:03:10;;;;;;;27.30;16.60;;;5.80;99.90;;;;;;5057890;28;20474;-88
2021/11/15 05:05:37;;;;;;;26.42;15.13;;;5.70;99.90;;;;;;5056351;28;20048;-88
2021/11/15 05:08:04;;;;;;;21.33;15.07;;;5.80;99.90;;;;;;5073767;28;20051;-88
2021/11/15 05:10:31;;;;;;;21.23;14.70;;;5.80;99.90;;;;;;5073727;28;20048;-87
2021/11/15 05:13:01;;;;;;;25.77;16.30;;;5.90;99.90;;;;;;5056273;28;20044;-88
2021/11/15 05:15:28;;;;;;;24.67;15.55;;;5.80;99.90;;;;;;5073715;28;20147;-88
2021/11/15 05:17:55;;;;;;;25.52;15.77;;;5.80;99.90;;;;;;5056967;28;20408;-88
2021/11/15 05:20:23;;;;;;;23.92;15.80;;;5.80;99.90;;;;;;5075406;28;20400;-88
2021/11/15 05:22:50;;;;;;;24.83;14.93;;;5.80;99.90;;;;;;5057862;28;20055;-88
2021/11/15 05:25:18;;;;;;;22.77;15.52;;;5.80;99.90;;;;;;5057926;28;20051;-87
2021/11/15 05:27:46;;;;;;;24.10;15.00;;;5.80;99.90;;;;;;5057701;28;20059;-87
2021/11/15 05:30:16;;;;;;;25.23;15.27;;;5.90;99.90;;;;;;5058017;28;20411;-88
2021/11/15 05:32:42;;;;;;;22.67;15.30;;;5.80;99.90;;;;;;5075262;28;20092;-87
2021/11/15 05:35:10;;;;;;;22.00;15.05;;;5.80;99.90;;;;;;5073936;28;20048;-87
2021/11/15 05:37:37;;;;;;;26.88;16.15;;;5.80;99.90;;;;;;5056979;28;20057;-87
2021/11/15 05:40:06;;;;;;;26.63;16.00;;;5.80;99.90;;;;;;5056917;28;20119;-87
2021/11/15 05:42:33;;;;;;;28.27;16.73;;;5.80;99.90;;;;;;5056917;28;20087;-87
2021/11/15 05:45:01;;;;;;;26.15;16.42;;;5.70;99.90;;;;;;5057071;28;20088;-87
2021/11/15 05:47:27;;;;;;;28.67;17.30;;;5.80;99.90;;;;;;5056308;28;20500;-87
2021/11/15 05:49:54;;;;;;;28.83;16.67;;;5.80;99.90;;;;;;5074415;28;20056;-87
2021/11/15 05:52:23;;;;;;;29.95;18.45;;;5.80;99.90;;;;;;5056772;28;20091;-87
2021/11/15 05:54:51;;;;;;;30.23;18.80;;;5.80;99.90;;;;;;5074306;28;20139;-87
2021/11/15 05:57:19;;;;;;;28.10;18.15;;;5.90;99.90;;;;;;5056915;28;20404;-88
2021/11/15 05:59:46;;;;;;;26.77;17.45;;;5.90;99.90;;;;;;5074069;28;20053;-87
2021/11/15 06:02:14;;;;;;;27.73;18.45;;;5.90;99.90;;;;;;5056575;28;20579;-87
2021/11/15 06:04:41;;;;;;;32.28;19.13;;;5.90;99.90;;;;;;5055347;28;20477;-87
2021/11/15 06:07:08;;;;;;;28.00;18.13;;;5.90;99.90;;;;;;5074196;28;20044;-88
2021/11/15 06:09:35;;;;;;;28.83;18.67;;;5.90;99.90;;;;;;5056269;28;20404;-87
2021/11/15 06:12:02;;;;;;;34.60;19.33;;;5.70;99.90;;;;;;5074202;28;20492;-87
2021/11/15 06:14:29;;;;;;;30.42;18.73;;;5.80;99.90;;;;;;5056372;28;20493;-87
2021/11/15 06:16:55;;;;;;;34.13;21.63;;;5.80;99.90;;;;;;5056401;28;20045;-87
2021/11/15 06:19:22;;;;;;;37.45;24.20;;;5.80;99.90;;;;;;5073856;28;20047;-88
2021/11/15 06:21:49;;;;;;;118.75;69.32;;;5.90;99.90;;;;;;5073736;28;20131;-87
2021/11/15 06:24:16;;;;;;;61.70;39.00;;;5.90;99.90;;;;;;5072683;28;20052;-87
2021/11/15 06:26:43;;;;;;;40.03;22.90;;;5.90;99.90;;;;;;5054470;28;20048;-87
2021/11/15 06:29:11;;;;;;;40.55;22.48;;;5.90;99.90;;;;;;5054785;28;20049;-88
2021/11/15 06:31:37;;;;;;;46.63;28.85;;;5.90;99.90;;;;;;5054638;28;20135;-88
2021/11/15 06:34:04;;;;;;;51.38;30.25;;;5.90;99.90;;;;;;5072335;28;20127;-87
2021/11/15 06:36:31;;;;;;;41.88;23.17;;;5.90;99.90;;;;;;5054367;28;20102;-88
2021/11/15 06:38:58;;;;;;;42.35;24.92;;;5.80;99.90;;;;;;5056413;28;20523;-88
2021/11/15 06:41:26;;;;;;;37.20;22.70;;;5.90;99.90;;;;;;5056171;28;20083;-87
2021/11/15 06:43:53;;;;;;;37.10;22.45;;;6.00;99.90;;;;;;5056408;28;20082;-88
2021/11/15 06:46:29;;;;;;;141.60;75.85;;;5.90;99.90;;;;;;5056615;28;20053;-88
2021/11/15 06:48:56;;;;;;;54.08;30.17;;;5.90;99.90;;;;;;5056288;28;20087;-88
2021/11/15 06:51:39;;;;;;;49.63;31.75;;;5.90;99.90;;;;;;5058527;28;20075;-88
2021/11/15 06:54:12;;;;;;;45.85;28.65;;;5.90;99.90;;;;;;5073624;28;20098;-88
2021/11/15 06:56:39;;;;;;;58.53;36.90;;;6.00;99.90;;;;;;5073522;28;20481;-88
2021/11/15 06:59:06;;;;;;;51.75;32.25;;;6.00;99.90;;;;;;5073624;28;20040;-88
2021/11/15 07:01:36;;;;;;;56.10;35.53;;;6.00;99.90;;;;;;5055761;28;20059;-88
2021/11/15 07:04:05;;;;;;;68.20;40.50;;;6.00;99.90;;;;;;5056420;28;20493;-87
2021/11/15 07:06:32;;;;;;;56.25;33.83;;;6.00;99.90;;;;;;5055650;28;20055;-87
2021/11/15 07:08:59;;;;;;;96.68;58.20;;;6.00;99.90;;;;;;5053244;28;20440;-86
2021/11/15 07:11:26;;;;;;;48.22;27.55;;;6.00;99.90;;;;;;5055089;28;20108;-87
2021/11/15 07:13:53;;;;;;;39.28;23.55;;;6.00;99.90;;;;;;5071869;28;20036;-88
2021/11/15 07:16:19;;;;;;;38.45;22.33;;;6.10;99.90;;;;;;5055271;28;20054;-88
2021/11/15 07:18:51;;;;;;;42.30;23.88;;;6.00;99.90;;;;;;5056149;28;20052;-88
2021/11/15 07:21:20;;;;;;;41.45;23.88;;;6.10;99.90;;;;;;5055902;28;20048;-88
2021/11/15 07:23:47;;;;;;;37.63;22.27;;;6.00;99.90;;;;;;5073788;28;20052;-87
2021/11/15 07:26:15;;;;;;;40.88;23.15;;;6.00;99.90;;;;;;5073635;28;20045;-88
2021/11/15 07:28:46;;;;;;;39.60;22.55;;;6.00;99.90;;;;;;5056584;28;20135;-88
2021/11/15 07:31:13;;;;;;;41.95;23.38;;;6.10;99.90;;;;;;5056006;28;20381;-87
2021/11/15 07:33:40;;;;;;;42.83;23.60;;;6.10;99.90;;;;;;5056064;28;20048;-88
2021/11/15 07:36:08;;;;;;;43.33;23.77;;;6.30;99.90;;;;;;5056114;28;20509;-88
2021/11/15 07:38:35;;;;;;;44.13;24.90;;;6.30;99.90;;;;;;5055872;28;20062;-88
2021/11/15 07:41:02;;;;;;;41.67;23.98;;;6.30;99.90;;;;;;5055788;28;20420;-88
2021/11/15 07:43:29;;;;;;;47.85;28.10;;;6.30;99.90;;;;;;5055639;28;20056;-88
2021/11/15 07:45:55;;;;;;;44.20;24.95;;;6.20;99.90;;;;;;5055795;28;20080;-88
2021/11/15 07:48:22;;;;;;;47.67;25.60;;;6.20;99.90;;;;;;5055687;28;20102;-88
2021/11/15 07:50:49;;;;;;;46.38;25.00;;;6.20;99.90;;;;;;5055729;28;20080;-88
2021/11/15 07:53:16;;;;;;;40.25;23.08;;;6.30;99.90;;;;;;5055698;28;20485;-88
2021/11/15 07:55:43;;;;;;;49.65;26.20;;;6.40;99.90;;;;;;5055750;28;20086;-87
2021/11/15 07:58:11;;;;;;;42.13;23.75;;;6.30;99.90;;;;;;5055861;28;20048;-87
2021/11/15 08:00:41;;;;;;;41.78;23.20;;;6.30;99.90;;;;;;5055562;28;20044;-88
2021/11/15 08:03:08;;;;;;;42.45;23.95;;;6.50;99.90;;;;;;5073703;28;20398;-87
2021/11/15 08:05:36;;;;;;;45.50;23.88;;;6.50;99.90;;;;;;5073097;28;20551;-87
2021/11/15 08:08:03;;;;;;;44.67;24.13;;;6.60;99.90;;;;;;5055246;28;20059;-87
2021/11/15 08:10:29;;;;;;;53.15;27.58;;;6.50;99.90;;;;;;5072798;28;20148;-88
2021/11/15 08:12:57;;;;;;;68.85;35.70;;;6.40;99.90;;;;;;5073080;28;20040;-87
2021/11/15 08:15:26;;;;;;;57.53;30.60;;;6.50;99.90;;;;;;5055400;28;20048;-88
2021/11/15 08:17:55;;;;;;;54.45;27.70;;;6.60;99.90;;;;;;5055411;28;20055;-87
2021/11/15 08:20:28;;;;;;;50.47;26.60;;;6.60;99.90;;;;;;5055214;28;20493;-88
2021/11/15 08:22:57;;;;;;;46.72;25.42;;;6.60;99.90;;;;;;5054976;28;20052;-88
2021/11/15 08:25:45;;;;;;;48.45;25.35;;;6.50;99.90;;;;;;5073000;28;20135;-88
2021/11/15 08:28:12;;;;;;;44.75;24.10;;;6.50;99.90;;;;;;5075974;28;20057;-88
2021/11/15 08:30:39;;;;;;;47.15;25.27;;;6.70;99.90;;;;;;5059030;28;20059;-88
2021/11/15 08:33:07;;;;;;;49.53;26.98;;;6.80;99.90;;;;;;5058786;28;20048;-88
2021/11/15 08:35:35;;;;;;;53.08;28.63;;;6.80;99.90;;;;;;5058896;28;20082;-88
2021/11/15 08:38:17;;;;;;;53.80;26.90;;;6.80;99.90;;;;;;5076435;28;20497;-88
2021/11/15 08:40:51;;;;;;;52.53;27.03;;;6.90;99.90;;;;;;5058506;28;20056;-88
2021/11/15 08:43:20;;;;;;;53.60;30.08;;;6.90;99.90;;;;;;5058686;28;20287;-88
2021/11/15 08:45:48;;;;;;;53.05;31.50;;;6.80;99.90;;;;;;5058778;28;20062;-88
2021/11/15 08:48:16;;;;;;;123.28;66.20;;;6.80;99.90;;;;;;5058440;28;20444;-88
2021/11/15 08:50:42;;;;;;;331.85;197.10;;;6.80;99.90;;;;;;5058284;28;20058;-87
2021/11/15 08:53:09;;;;;;;287.73;151.57;;;6.90;99.90;;;;;;5058158;28;20045;-88
2021/11/15 08:55:36;;;;;;;146.18;75.38;;;6.90;99.90;;;;;;5058482;28;20060;-87
2021/11/15 08:58:03;;;;;;;224.77;125.72;;;6.70;99.90;;;;;;5058361;28;20040;-87
2021/11/15 09:00:30;;;;;;;84.85;41.95;;;6.60;99.90;;;;;;5058083;28;20074;-88
2021/11/15 09:02:57;;;;;;;118.72;60.90;;;6.50;99.90;;;;;;5057968;28;20501;-88
2021/11/15 09:05:24;;;;;;;88.30;43.67;;;6.50;99.90;;;;;;5057256;28;20044;-87
2021/11/15 09:07:52;;;;;;;98.97;54.30;;;6.50;99.90;;;;;;5074737;28;20078;-88
2021/11/15 09:10:19;;;;;;;88.15;44.17;;;6.60;99.90;;;;;;5057465;28;20053;-88
2021/11/15 09:12:46;;;;;;;75.68;39.58;;;6.50;99.90;;;;;;5057633;28;20045;-88
2021/11/15 09:15:16;;;;;;;121.15;64.47;;;6.50;99.90;;;;;;5075016;28;20131;-88
2021/11/15 09:17:45;;;;;;;195.50;105.47;;;6.50;99.90;;;;;;5075228;28;20056;-88
2021/11/15 09:20:13;;;;;;;141.20;73.78;;;6.50;99.90;;;;;;5074927;28;20055;-88
2021/11/15 09:22:40;;;;;;;89.90;43.30;;;6.50;99.90;;;;;;5074771;28;20147;-88
2021/11/15 09:25:09;;;;;;;139.25;73.95;;;6.50;99.90;;;;;;5046061;28;20048;-89
2021/11/15 09:27:39;;;;;;;96.28;53.03;;;6.40;99.90;;;;;;5048100;28;20102;-88
2021/11/15 09:30:09;;;;;;;88.30;38.15;;;6.40;99.90;;;;;;5065989;28;20040;-87
2021/11/15 09:32:38;;;;;;;86.18;42.25;;;6.40;99.90;;;;;;5065042;28;20127;-87
2021/11/15 09:35:06;;;;;;;116.60;62.92;;;6.30;99.90;;;;;;5046431;28;20051;-87
2021/11/15 09:37:33;;;;;;;81.20;38.38;;;6.30;99.90;;;;;;5045476;28;20519;-87
2021/11/15 09:40:00;;;;;;;81.93;37.80;;;6.40;99.90;;;;;;5046000;28;20049;-88
2021/11/15 09:42:27;;;;;;;102.78;45.80;;;6.30;99.90;;;;;;5046020;28;20127;-87
2021/11/15 09:44:54;;;;;;;89.82;40.30;;;6.20;99.90;;;;;;5065436;28;20055;-87
2021/11/15 09:47:21;;;;;;;93.80;40.28;;;6.20;99.90;;;;;;5064484;28;20053;-88
2021/11/15 09:49:48;;;;;;;81.97;38.83;;;6.20;99.90;;;;;;5046960;28;20040;-87
2021/11/15 09:52:15;;;;;;;85.63;38.70;;;6.20;99.90;;;;;;5047911;28;20135;-86
2021/11/15 09:54:45;;;;;;;87.47;39.30;;;6.30;99.90;;;;;;5051289;28;20139;-87
2021/11/15 09:57:35;;;;;;;80.32;37.15;;;6.20;99.90;;;;;;5059502;28;20463;-87
2021/11/15 10:00:07;;;;;;;82.13;35.72;;;6.30;99.90;;;;;;5056335;28;20075;-87
2021/11/15 10:02:34;;;;;;;85.25;38.63;;;6.20;99.90;;;;;;5056247;28;20052;-88
2021/11/15 10:05:01;;;;;;;94.68;40.10;;;6.20;99.90;;;;;;5056441;28;20072;-87
2021/11/15 10:07:37;;;;;;;92.28;42.10;;;6.30;99.90;;;;;;5073902;28;20127;-88
2021/11/15 10:10:24;;;;;;;106.82;46.95;;;6.30;99.90;;;;;;5055108;28;20053;-88
2021/11/15 10:13:10;;;;;;;89.32;40.70;;;6.20;99.90;;;;;;5073841;28;20135;-88
2021/11/15 10:15:46;;;;;;;94.88;39.95;;;6.30;99.90;;;;;;5056210;28;20052;-87
2021/11/15 10:18:14;;;;;;;100.97;42.42;;;6.30;99.90;;;;;;5056210;28;20128;-86
2021/11/15 10:20:50;;;;;;;100.60;42.58;;;6.30;99.90;;;;;;5055903;28;20288;-86
2021/11/15 10:23:36;;;;;;;105.35;43.10;;;6.30;99.90;;;;;;5055929;28;20167;-87
2021/11/15 10:26:21;;;;;;;102.32;42.38;;;6.20;99.90;;;;;;5072904;28;20074;-87
2021/11/15 10:28:52;;;;;;;104.82;42.97;;;6.20;99.90;;;;;;5053842;28;20055;-88
2021/11/15 10:31:35;;;;;;;93.75;41.90;;;6.10;99.90;;;;;;5055582;28;20056;-88
2021/11/15 10:34:06;;;;;;;108.32;44.50;;;6.20;99.90;;;;;;5056056;28;20098;-87
2021/11/15 10:36:44;;;;;;;93.22;39.42;;;6.20;99.90;;;;;;5055922;28;20049;-87
2021/11/15 10:39:11;;;;;;;103.53;42.42;;;6.20;99.90;;;;;;5055906;28;20131;-88
2021/11/15 10:41:38;;;;;;;96.70;43.90;;;6.20;99.90;;;;;;5073203;28;20052;-87
2021/11/15 10:44:09;;;;;;;94.32;42.88;;;6.30;99.90;;;;;;5073219;28;20488;-88
2021/11/15 10:46:38;;;;;;;81.30;38.33;;;6.40;99.90;;;;;;5050226;28;20059;-88
2021/11/15 10:49:07;;;;;;;77.57;36.70;;;6.40;99.90;;;;;;5051951;28;20394;-88
2021/11/15 10:51:51;;;;;;;74.43;35.50;;;6.40;99.90;;;;;;5053456;28;20201;-88
2021/11/15 10:54:55;;;;;;;76.82;37.15;;;6.50;99.90;;;;;;5052359;28;20048;-88
2021/11/15 10:57:35;;;;;;;85.57;39.47;;;6.40;99.90;;;;;;5052144;28;20055;-88
2021/11/15 11:00:08;;;;;;;90.32;40.72;;;6.40;99.90;;;;;;5053356;28;20399;-88
2021/11/15 11:02:36;;;;;;;74.45;35.47;;;6.40;99.90;;;;;;5051775;28;20135;-88
2021/11/15 11:05:14;;;;;;;94.05;43.65;;;6.50;99.90;;;;;;5052097;28;20061;-87
2021/11/15 11:07:46;;;;;;;102.45;48.20;;;6.50;99.90;;;;;;5052117;28;20053;-88
2021/11/15 11:10:17;;;;;;;86.38;41.42;;;6.50;99.90;;;;;;5051961;28;20560;-87
2021/11/15 11:13:02;;;;;;;100.78;46.38;;;6.40;99.90;;;;;;5052189;28;20116;-88
2021/11/15 11:15:36;;;;;;;87.45;41.08;;;6.30;99.90;;;;;;5052301;28;20041;-88
2021/11/15 11:18:11;;;;;;;90.40;41.95;;;6.30;99.90;;;;;;5052130;28;20053;-88
2021/11/15 11:26:12;;;;;;;82.45;39.88;;;6.30;99.90;;;;;;5052777;28;20071;-88
2021/11/15 11:28:42;;;;;;;88.05;38.38;;;6.30;99.90;;;;;;5051651;28;20055;-87
2021/11/15 11:31:11;;;;;;;87.55;40.70;;;6.20;99.90;;;;;;5053330;28;20049;-88
2021/11/15 11:33:38;;;;;;;88.78;39.25;;;6.30;99.90;;;;;;5051879;28;20055;-88
2021/11/15 11:36:06;;;;;;;90.97;41.15;;;6.50;99.90;;;;;;5051900;28;20049;-88
2021/11/15 11:38:34;;;;;;;86.53;37.85;;;6.50;99.90;;;;;;5051714;28;20057;-88
2021/11/15 11:41:00;;;;;;;84.25;39.33;;;6.50;99.90;;;;;;5051766;28;20044;-88
2021/11/15 11:43:28;;;;;;;83.05;39.03;;;6.60;99.90;;;;;;5052516;28;20482;-87
2021/11/15 11:45:55;;;;;;;86.65;43.40;;;6.60;99.90;;;;;;5051579;28;20051;-88
2021/11/15 11:48:25;;;;;;;85.90;41.45;;;6.50;99.90;;;;;;5052812;28;20045;-88
2021/11/15 11:50:55;;;;;;;93.07;41.92;;;6.60;99.90;;;;;;5051802;28;20041;-87
2021/11/15 11:53:33;;;;;;;91.85;40.85;;;6.40;99.90;;;;;;5052716;28;20080;-88
2021/11/15 11:56:17;;;;;;;92.05;41.22;;;6.40;99.90;;;;;;5051824;28;20048;-88
2021/11/15 11:58:50;;;;;;;85.10;38.35;;;6.50;99.90;;;;;;5051574;28;20537;-88
2021/11/15 12:01:24;;;;;;;91.90;41.47;;;6.50;99.90;;;;;;5054695;28;20052;-89
2021/11/15 12:04:15;;;;;;;94.28;41.03;;;6.60;99.90;;;;;;5055603;28;20151;-88
2021/11/15 12:06:43;;;;;;;84.80;38.70;;;6.50;99.90;;;;;;5055193;28;20471;-89
2021/11/15 12:09:11;;;;;;;96.20;42.17;;;6.50;99.90;;;;;;5055546;28;20099;-89
2021/11/15 12:11:41;;;;;;;97.65;42.97;;;6.60;99.90;;;;;;5055241;28;20041;-88
2021/11/15 12:14:11;;;;;;;100.78;41.75;;;6.60;99.90;;;;;;5056234;28;20059;-89
2021/11/15 12:17:12;;;;;;;118.80;54.83;;;6.60;99.90;;;;;;5055188;28;20072;-89
2021/11/15 12:19:48;;;;;;;99.68;44.40;;;6.60;99.90;;;;;;5055214;28;20045;-88
2021/11/15 12:22:20;;;;;;;105.15;43.97;;;6.50;99.90;;;;;;5055201;28;20041;-89
2021/11/15 12:25:06;;;;;;;102.70;45.67;;;6.40;99.90;;;;;;5055900;28;20057;-89
2021/11/15 12:28:00;;;;;;;106.90;46.35;;;6.50;99.90;;;;;;5054781;28;20413;-88
2021/11/15 12:30:35;;;;;;;103.75;44.35;;;6.50;99.90;;;;;;5055238;28;20052;-89
2021/11/15 12:33:20;;;;;;;102.85;45.90;;;6.50;99.90;;;;;;5056186;28;20053;-89
2021/11/15 12:36:09;;;;;;;102.10;44.30;;;6.60;99.90;;;;;;5054940;28;20139;-89
2021/11/15 12:38:38;;;;;;;90.53;41.47;;;6.80;99.90;;;;;;5055859;28;20056;-88
2021/11/15 12:41:31;;;;;;;99.10;42.90;;;6.80;99.90;;;;;;5055104;28;20056;-89
2021/11/15 12:44:04;;;;;;;96.07;42.33;;;6.80;99.90;;;;;;5054762;28;20390;-89
2021/11/15 12:46:51;;;;;;;101.55;44.15;;;6.70;99.90;;;;;;5054359;28;20053;-89
2021/11/15 12:49:28;;;;;;;97.15;43.45;;;6.70;99.90;;;;;;5054843;28;20136;-88
2021/11/15 12:52:07;;;;;;;96.70;43.92;;;6.80;99.90;;;;;;5055598;28;20041;-88
2021/11/15 12:54:47;;;;;;;93.85;42.05;;;6.80;99.90;;;;;;5054519;28;20081;-89